createdAt,value
2023-01-06T00:01:07.346Z,61.80
2023-01-06T00:03:34.228Z,62.31
2023-01-06T00:06:02.154Z,61.49
2023-01-06T00:08:29.165Z,61.78
2023-01-06T00:10:56.092Z,62.35
2023-01-06T00:13:23.315Z,62.67
2023-01-06T00:15:50.346Z,61.49
2023-01-06T00:18:17.255Z,61.72
2023-01-06T00:20:44.102Z,60.95
2023-01-06T00:23:10.953Z,61.50
2023-01-06T00:25:37.806Z,60.11
2023-01-06T00:28:04.723Z,60.28
2023-01-06T00:30:31.615Z,59.50
2023-01-06T00:32:58.476Z,60.52
2023-01-06T00:35:25.337Z,62.27
2023-01-06T00:37:52.170Z,62.34
2023-01-06T00:40:18.825Z,62.58
2023-01-06T00:42:45.675Z,63.89
2023-01-06T00:45:12.640Z,63.68
2023-01-06T00:47:39.561Z,63.78
2023-01-06T00:50:06.991Z,64.35
2023-01-06T00:52:34.450Z,64.03
2023-01-06T00:55:01.304Z,61.93
2023-01-06T00:57:28.334Z,62.47
2023-01-06T00:59:55.201Z,62.99
2023-01-06T01:02:22.355Z,62.02
2023-01-06T01:04:49.413Z,63.68
2023-01-06T01:07:17.160Z,62.33
2023-01-06T01:09:44.016Z,63.05
2023-01-06T01:12:14.906Z,63.13
2023-01-06T01:14:47.513Z,60.90
2023-01-06T01:17:17.634Z,62.08
2023-01-06T01:19:44.469Z,61.03
2023-01-06T01:22:11.443Z,60.34
2023-01-06T01:24:38.735Z,58.22
2023-01-06T01:27:06.281Z,58.56
2023-01-06T01:29:33.362Z,58.58
2023-01-06T01:32:00.733Z,56.84
2023-01-06T01:34:27.781Z,57.36
2023-01-06T01:36:55.135Z,58.16
2023-01-06T01:39:24.584Z,59.51
2023-01-06T01:41:52.115Z,57.81
2023-01-06T01:44:54.525Z,58.05
2023-01-06T01:47:36.262Z,59.33
2023-01-06T01:50:15.114Z,61.08
2023-01-06T01:52:43.343Z,61.35
2023-01-06T01:55:11.239Z,60.60
2023-01-06T01:57:49.119Z,59.54
2023-01-06T02:00:16.282Z,59.43
2023-01-06T02:02:43.613Z,58.76
2023-01-06T02:05:13.124Z,60.56
2023-01-06T02:07:40.976Z,59.47
2023-01-06T02:10:17.477Z,58.70
2023-01-06T02:12:47.305Z,60.24
2023-01-06T02:15:19.184Z,60.11
2023-01-06T02:18:07.375Z,59.24
2023-01-06T02:20:34.170Z,57.81
2023-01-06T02:23:19.637Z,58.94
2023-01-06T02:25:55.956Z,56.42
2023-01-06T02:28:53.752Z,57.52
2023-01-06T02:31:52.696Z,59.54
2023-01-06T02:34:31.897Z,58.22
2023-01-06T02:37:36.486Z,60.32
2023-01-06T02:40:17.696Z,61.59
2023-01-06T02:43:08.958Z,58.91
2023-01-06T02:45:35.790Z,58.24
2023-01-06T02:48:30.249Z,59.10
2023-01-06T02:51:04.712Z,56.67
2023-01-06T02:53:41.071Z,58.29
2023-01-06T02:56:08.547Z,56.74
2023-01-06T02:59:01.452Z,55.51
2023-01-06T03:01:35.688Z,52.95
2023-01-06T03:04:06.000Z,55.21
2023-01-06T03:06:33.423Z,55.77
2023-01-06T03:09:01.518Z,55.98
2023-01-06T03:11:29.655Z,57.06
2023-01-06T03:14:00.825Z,56.39
2023-01-06T03:16:27.799Z,56.35
2023-01-06T03:18:55.042Z,57.64
2023-01-06T03:21:25.547Z,56.98
2023-01-06T03:23:52.633Z,57.34
2023-01-06T03:26:19.683Z,57.37
2023-01-06T03:28:46.560Z,59.42
2023-01-06T03:31:43.800Z,59.19
2023-01-06T03:34:22.504Z,58.59
2023-01-06T03:36:55.398Z,55.80
2023-01-06T03:39:37.320Z,56.09
2023-01-06T03:42:40.560Z,58.14
2023-01-06T03:45:24.455Z,55.81
2023-01-06T03:47:56.972Z,56.51
2023-01-06T03:50:29.303Z,59.66
2023-01-06T03:53:04.033Z,56.41
2023-01-06T03:55:32.903Z,54.09
2023-01-06T03:58:01.231Z,54.52
2023-01-06T04:00:31.977Z,53.66
2023-01-06T04:03:01.024Z,53.64
2023-01-06T04:05:28.915Z,54.71
2023-01-06T04:07:55.823Z,51.97
2023-01-06T04:10:23.618Z,51.15
2023-01-06T04:12:50.883Z,52.51
2023-01-06T04:15:20.218Z,54.67
2023-01-06T04:17:48.027Z,54.17
2023-01-06T04:20:17.583Z,54.59
2023-01-06T04:22:44.451Z,55.67
2023-01-06T04:25:11.966Z,55.41
2023-01-06T04:27:38.892Z,55.33
2023-01-06T04:30:06.938Z,55.86
2023-01-06T04:32:33.943Z,55.44
2023-01-06T04:35:00.812Z,55.95
2023-01-06T04:37:27.701Z,55.63
2023-01-06T04:39:54.536Z,59.38
2023-01-06T04:42:21.449Z,56.09
2023-01-06T04:44:48.310Z,54.98
2023-01-06T04:47:15.260Z,55.17
2023-01-06T04:49:42.140Z,55.02
2023-01-06T04:52:09.129Z,56.02
2023-01-06T04:54:36.665Z,56.90
2023-01-06T04:57:03.717Z,58.19
2023-01-06T04:59:30.647Z,61.46
2023-01-06T05:01:57.589Z,58.59
2023-01-06T05:04:24.512Z,59.25
2023-01-06T05:06:51.542Z,58.66
2023-01-06T05:09:18.377Z,58.29
2023-01-06T05:11:45.291Z,56.37
2023-01-06T05:14:12.304Z,56.27
2023-01-06T05:16:40.006Z,54.38
2023-01-06T05:19:06.980Z,56.48
2023-01-06T05:21:33.848Z,55.79
2023-01-06T05:24:01.082Z,55.36
2023-01-06T05:26:28.409Z,54.08
2023-01-06T05:28:55.601Z,53.49
2023-01-06T05:31:22.907Z,52.63
2023-01-06T05:33:49.852Z,52.32
2023-01-06T05:36:18.091Z,51.74
2023-01-06T05:38:45.709Z,51.89
2023-01-06T05:41:12.726Z,53.45
2023-01-06T05:43:39.844Z,51.40
2023-01-06T05:46:08.742Z,51.88
2023-01-06T05:48:36.438Z,51.18
2023-01-06T05:51:10.943Z,52.37
2023-01-06T05:53:40.665Z,52.40
2023-01-06T05:56:09.441Z,52.20
2023-01-06T05:58:37.296Z,51.50
2023-01-06T06:01:04.987Z,51.83
2023-01-06T06:03:32.768Z,50.91
2023-01-06T06:06:06.910Z,51.20
2023-01-06T06:08:34.078Z,50.72
2023-01-06T06:11:05.695Z,49.34
2023-01-06T06:13:32.704Z,49.47
2023-01-06T06:16:13.922Z,48.13
2023-01-06T06:18:44.844Z,49.93
2023-01-06T06:21:16.401Z,50.86
2023-01-06T06:23:43.555Z,56.17
2023-01-06T06:26:11.692Z,54.40
2023-01-06T06:28:39.086Z,53.77
2023-01-06T06:31:08.262Z,54.24
2023-01-06T06:33:35.291Z,52.59
2023-01-06T06:36:02.732Z,54.77
2023-01-06T06:38:29.738Z,52.31
2023-01-06T06:40:56.638Z,52.38
2023-01-06T06:43:23.604Z,50.23
2023-01-06T06:45:50.559Z,50.13
2023-01-06T06:48:17.546Z,48.99
2023-01-06T06:50:44.408Z,50.51
2023-01-06T06:53:11.282Z,50.91
2023-01-06T06:55:38.181Z,52.67
2023-01-06T06:58:05.064Z,52.80
2023-01-06T07:00:31.940Z,51.96
2023-01-06T07:02:58.793Z,51.61
2023-01-06T07:05:25.896Z,52.67
2023-01-06T07:07:52.749Z,51.82
2023-01-06T07:10:19.668Z,51.92
2023-01-06T07:12:46.560Z,52.82
2023-01-06T07:15:13.425Z,51.25
2023-01-06T07:17:41.953Z,49.94
2023-01-06T07:20:11.484Z,50.02
2023-01-06T07:22:42.253Z,48.73
2023-01-06T07:25:09.882Z,49.40
2023-01-06T07:27:37.169Z,48.86
2023-01-06T07:30:05.406Z,47.24
2023-01-06T07:32:32.350Z,47.25
2023-01-06T07:34:59.259Z,47.19
2023-01-06T07:37:26.126Z,45.94
2023-01-06T07:39:52.967Z,46.10
2023-01-06T07:42:19.846Z,46.47
2023-01-06T07:44:46.679Z,46.53
2023-01-06T07:47:14.316Z,45.67
2023-01-06T07:49:41.326Z,45.46
2023-01-06T07:52:08.172Z,46.34
2023-01-06T07:54:35.075Z,47.12
2023-01-06T07:57:01.940Z,49.39
2023-01-06T07:59:28.783Z,49.78
2023-01-06T08:01:55.763Z,48.33
2023-01-06T08:04:22.721Z,47.88
2023-01-06T08:06:49.614Z,46.91
2023-01-06T08:09:16.455Z,45.06
2023-01-06T08:11:43.331Z,43.64
2023-01-06T08:14:11.762Z,42.81
2023-01-06T08:16:40.137Z,42.38
2023-01-06T08:19:07.239Z,41.63
2023-01-06T08:21:34.164Z,41.55
2023-01-06T08:24:01.037Z,40.66
2023-01-06T08:26:27.958Z,42.38
2023-01-06T08:28:55.317Z,42.83
2023-01-06T08:31:23.052Z,42.61
2023-01-06T08:33:51.930Z,42.81
2023-01-06T08:36:20.246Z,41.98
2023-01-06T08:38:47.710Z,39.83
2023-01-06T08:41:15.339Z,42.06
2023-01-06T08:43:45.569Z,40.95
2023-01-06T08:46:16.375Z,40.72
2023-01-06T08:48:43.924Z,39.12
2023-01-06T08:51:16.479Z,39.27
2023-01-06T08:53:44.200Z,37.95
2023-01-06T08:56:16.014Z,37.55
2023-01-06T08:58:42.973Z,38.95
2023-01-06T09:01:19.440Z,39.73
2023-01-06T09:03:46.436Z,38.95
2023-01-06T09:06:13.686Z,40.84
2023-01-06T09:08:40.568Z,41.38
2023-01-06T09:11:08.857Z,42.60
2023-01-06T09:13:36.565Z,43.29
2023-01-06T09:16:10.130Z,43.00
2023-01-06T09:18:37.752Z,42.46
2023-01-06T09:21:05.605Z,42.28
2023-01-06T09:23:33.213Z,43.29
2023-01-06T09:26:00.110Z,40.36
2023-01-06T09:28:27.007Z,41.48
2023-01-06T09:30:53.955Z,41.01
2023-01-06T09:33:21.276Z,39.79
2023-01-06T09:35:48.204Z,38.40
2023-01-06T09:38:15.423Z,39.36
2023-01-06T09:40:46.036Z,39.36
2023-01-06T09:43:23.534Z,40.19
2023-01-06T09:45:54.271Z,40.78
2023-01-06T09:48:26.527Z,40.66
2023-01-06T09:51:00.187Z,41.00
2023-01-06T09:53:35.385Z,41.58
2023-01-06T09:56:06.722Z,41.97
2023-01-06T09:58:55.715Z,43.25
2023-01-06T10:01:31.545Z,43.39
2023-01-06T10:03:59.384Z,44.38
2023-01-06T10:06:35.264Z,44.65
2023-01-06T10:09:12.628Z,45.39
2023-01-06T10:11:58.677Z,46.28
2023-01-06T10:14:59.010Z,47.10
2023-01-06T10:17:34.945Z,46.82
2023-01-06T10:20:30.888Z,46.90
2023-01-06T10:23:31.114Z,47.03
2023-01-06T10:26:10.797Z,45.55
2023-01-06T10:28:53.260Z,45.62
2023-01-06T10:31:29.012Z,44.99
2023-01-06T10:33:57.230Z,46.05
2023-01-06T10:36:45.073Z,46.10
2023-01-06T10:39:18.438Z,47.87
2023-01-06T10:42:20.705Z,48.25
2023-01-06T10:44:49.430Z,47.26
2023-01-06T10:47:23.475Z,48.23
2023-01-06T10:49:50.513Z,49.02
2023-01-06T10:52:19.901Z,48.32
2023-01-06T10:54:47.165Z,49.23
2023-01-06T10:57:21.163Z,48.31
2023-01-06T11:00:07.610Z,48.07
2023-01-06T11:02:34.611Z,48.94
2023-01-06T11:05:02.237Z,48.21
2023-01-06T11:07:30.021Z,48.24
2023-01-06T11:09:57.646Z,46.31
2023-01-06T11:12:27.361Z,45.90
2023-01-06T11:15:09.467Z,46.14
2023-01-06T11:17:36.543Z,45.09
2023-01-06T11:20:09.891Z,45.05
2023-01-06T11:22:44.261Z,44.60
2023-01-06T11:25:20.149Z,41.09
2023-01-06T11:28:07.184Z,39.67
2023-01-06T11:30:39.245Z,39.97
2023-01-06T11:33:15.067Z,41.21
2023-01-06T11:35:42.207Z,38.86
2023-01-06T11:38:13.691Z,37.40
2023-01-06T11:40:40.794Z,36.54
2023-01-06T11:43:15.107Z,36.79
2023-01-06T11:45:49.355Z,36.48
2023-01-06T11:48:28.751Z,38.55
2023-01-06T11:51:11.069Z,37.46
2023-01-06T11:53:39.342Z,36.78
2023-01-06T11:56:19.815Z,35.57
2023-01-06T11:59:10.177Z,35.70
2023-01-06T12:04:41.544Z,36.06
2023-01-06T12:07:21.478Z,36.02
2023-01-06T12:09:58.611Z,35.58
2023-01-06T12:12:27.827Z,37.03
2023-01-06T12:14:55.159Z,36.08
2023-01-06T12:17:55.835Z,36.88
2023-01-06T12:20:47.761Z,36.90
2023-01-06T12:23:24.155Z,37.31
2023-01-06T12:25:53.569Z,37.13
2023-01-06T12:28:28.369Z,38.28
2023-01-06T12:31:03.815Z,38.17
2023-01-06T12:33:40.677Z,37.71
2023-01-06T12:36:33.883Z,39.37
2023-01-06T12:39:12.713Z,38.24
2023-01-06T12:42:29.037Z,37.95
2023-01-06T12:45:01.669Z,39.08
2023-01-06T12:47:40.521Z,40.53
2023-01-06T12:50:20.709Z,39.86
2023-01-06T12:52:48.698Z,42.16
2023-01-06T12:55:53.672Z,41.89
2023-01-06T12:58:48.790Z,43.59
2023-01-06T13:01:17.678Z,44.31
2023-01-06T13:04:07.981Z,44.85
2023-01-06T13:06:57.165Z,44.37
2023-01-06T13:15:28.237Z,43.32
2023-01-06T13:26:49.890Z,42.61
2023-01-06T13:29:30.553Z,42.69
2023-01-06T13:43:50.534Z,44.30
2023-01-06T13:49:04.875Z,43.88
2023-01-06T13:51:35.178Z,42.91
2023-01-06T13:54:03.245Z,42.94
2023-01-06T13:56:36.178Z,42.04
2023-01-06T14:06:49.576Z,42.96
2023-01-06T14:09:18.545Z,43.62
2023-01-06T14:11:45.942Z,44.02
2023-01-06T14:14:28.603Z,43.84
2023-01-06T14:17:12.437Z,44.10
2023-01-06T14:22:41.714Z,43.83
2023-01-06T14:27:46.669Z,44.35
2023-01-06T14:30:37.680Z,45.00
2023-01-06T14:33:07.846Z,45.18
2023-01-06T14:35:43.983Z,45.10
2023-01-06T14:38:20.423Z,46.72
2023-01-06T14:41:05.486Z,47.36
2023-01-06T14:43:44.067Z,45.57
2023-01-06T14:46:24.529Z,45.11
2023-01-06T14:48:55.683Z,45.92
2023-01-06T14:51:22.887Z,46.39
2023-01-06T14:53:55.327Z,46.03
2023-01-06T14:56:23.896Z,45.67
2023-01-06T14:58:50.748Z,45.70
2023-01-06T15:01:25.906Z,45.17
2023-01-06T15:03:55.716Z,45.52
2023-01-06T15:06:24.746Z,43.76
2023-01-06T15:08:51.838Z,44.92
2023-01-06T15:11:30.142Z,45.55
2023-01-06T15:13:57.144Z,44.63
2023-01-06T15:16:36.901Z,44.49
2023-01-06T15:19:07.765Z,45.78
2023-01-06T15:21:42.285Z,44.50
2023-01-06T15:24:42.129Z,45.65
2023-01-06T15:27:13.228Z,46.93
2023-01-06T15:29:50.001Z,50.29
2023-01-06T15:32:17.223Z,51.46
2023-01-06T15:34:47.568Z,49.45
2023-01-06T15:37:23.922Z,48.44
2023-01-06T15:39:52.566Z,48.54
2023-01-06T15:42:24.069Z,50.54
2023-01-06T15:45:24.326Z,47.41
2023-01-06T15:47:51.319Z,48.66
2023-01-06T15:50:20.740Z,46.00
2023-01-06T15:52:50.665Z,45.67
2023-01-06T15:55:25.194Z,45.42
2023-01-06T15:57:55.506Z,47.01
2023-01-06T16:00:29.248Z,45.17
2023-01-06T16:02:56.263Z,45.74
2023-01-06T16:05:37.371Z,47.15
2023-01-06T16:08:16.429Z,48.02
2023-01-06T16:10:46.307Z,47.92
2023-01-06T16:13:19.441Z,48.65
2023-01-06T16:15:52.205Z,48.38
2023-01-06T16:18:27.434Z,48.97
2023-01-06T16:20:54.698Z,49.28
2023-01-06T16:23:40.024Z,49.31
2023-01-06T16:26:19.146Z,50.26
2023-01-06T16:28:57.397Z,50.74
2023-01-06T16:31:36.519Z,51.68
2023-01-06T16:34:22.013Z,53.74
2023-01-06T16:36:49.974Z,54.63
2023-01-06T16:39:16.958Z,55.28
2023-01-06T16:41:58.964Z,55.93
2023-01-06T16:44:26.925Z,56.08
2023-01-06T16:46:53.828Z,56.34
2023-01-06T16:49:21.961Z,56.62
2023-01-06T16:51:49.185Z,56.94
2023-01-06T16:54:19.921Z,57.01
2023-01-06T16:56:47.219Z,57.26
2023-01-06T16:59:15.849Z,58.15
2023-01-06T17:01:44.200Z,57.16
2023-01-06T17:04:12.745Z,55.73
2023-01-06T17:06:40.956Z,56.21
2023-01-06T17:09:19.880Z,56.12
2023-01-06T17:11:48.255Z,57.31
2023-01-06T17:14:17.131Z,57.88
2023-01-06T17:16:44.330Z,57.23
2023-01-06T17:19:26.841Z,57.58
2023-01-06T17:22:22.888Z,56.93
2023-01-06T17:24:50.416Z,57.58
2023-01-06T17:27:26.698Z,56.83
2023-01-06T17:29:54.631Z,56.65
2023-01-06T17:32:23.690Z,56.14
2023-01-06T17:34:50.621Z,55.71
2023-01-06T17:37:25.500Z,56.03
2023-01-06T17:39:53.039Z,56.50
2023-01-06T17:42:26.449Z,58.46
2023-01-06T17:44:57.660Z,56.34
2023-01-06T17:47:24.461Z,57.36
2023-01-06T17:49:55.211Z,59.33
2023-01-06T17:52:24.836Z,60.30
2023-01-06T17:55:15.946Z,59.32
2023-01-06T17:57:46.238Z,60.77
2023-01-06T18:00:34.933Z,55.65
2023-01-06T18:03:05.671Z,54.18
2023-01-06T18:05:35.572Z,52.17
2023-01-06T18:08:05.352Z,52.53
2023-01-06T18:10:40.100Z,53.79
2023-01-06T18:13:16.450Z,54.26
2023-01-06T18:15:48.206Z,56.03
2023-01-06T18:18:25.246Z,57.03
2023-01-06T18:21:01.279Z,56.93
2023-01-06T18:23:28.548Z,57.32
2023-01-06T18:25:57.423Z,57.84
2023-01-06T18:28:24.399Z,59.38
2023-01-06T18:30:59.240Z,61.44
2023-01-06T18:33:26.356Z,62.85
2023-01-06T18:35:57.653Z,63.60
2023-01-06T18:38:30.382Z,63.08
2023-01-06T18:40:57.249Z,62.98
2023-01-06T18:43:29.925Z,61.80
2023-01-06T18:46:01.976Z,61.70
2023-01-06T18:48:35.072Z,60.68
2023-01-06T18:51:03.097Z,60.18
2023-01-06T18:53:31.906Z,59.30
2023-01-06T18:56:02.292Z,59.49
2023-01-06T18:58:37.326Z,58.38
2023-01-06T19:01:19.801Z,59.43
2023-01-06T19:04:01.986Z,59.03
2023-01-06T19:06:40.411Z,59.14
2023-01-06T19:09:17.753Z,58.19
2023-01-06T19:11:44.498Z,57.31
2023-01-06T19:14:17.658Z,56.10
2023-01-06T19:16:57.342Z,55.30
2023-01-06T19:19:27.560Z,51.73
2023-01-06T19:22:02.507Z,51.32
2023-01-06T19:24:29.515Z,51.23
2023-01-06T19:26:58.343Z,50.60
2023-01-06T19:29:32.462Z,51.38
2023-01-06T19:32:00.951Z,51.78
2023-01-06T19:34:29.433Z,53.10
2023-01-06T19:36:58.358Z,54.57
2023-01-06T19:39:37.477Z,55.97
2023-01-06T19:42:27.454Z,56.22
2023-01-06T19:44:58.043Z,57.91
2023-01-06T19:47:27.944Z,60.09
2023-01-06T19:50:00.103Z,62.21
2023-01-06T19:52:35.707Z,63.75
2023-01-06T19:55:14.530Z,65.77
2023-01-06T19:57:44.420Z,65.18
2023-01-06T20:00:47.284Z,65.36
2023-01-06T20:03:29.957Z,66.64
2023-01-06T20:05:56.923Z,65.75
2023-01-06T20:08:23.864Z,65.86
2023-01-06T20:10:50.800Z,65.56
2023-01-06T20:13:17.630Z,64.72
2023-01-06T20:15:44.298Z,64.55
2023-01-06T20:18:11.159Z,65.51
2023-01-06T20:20:38.057Z,63.66
2023-01-06T20:23:05.009Z,63.58
2023-01-06T20:25:31.904Z,63.63
2023-01-06T20:27:58.791Z,63.73
2023-01-06T20:30:26.511Z,64.76
2023-01-06T20:32:53.537Z,62.16
2023-01-06T20:35:20.454Z,63.24
2023-01-06T20:37:47.290Z,61.87
2023-01-06T20:40:13.960Z,61.20
2023-01-06T20:42:40.924Z,61.56
2023-01-06T20:45:08.243Z,62.04
2023-01-06T20:47:35.073Z,61.47
2023-01-06T20:50:01.718Z,63.16
2023-01-06T20:52:28.630Z,63.96
2023-01-06T20:54:55.465Z,62.92
2023-01-06T20:57:22.141Z,61.83
2023-01-06T20:59:48.976Z,62.27
2023-01-06T21:02:16.015Z,63.23
2023-01-06T21:04:42.982Z,62.93
2023-01-06T21:07:09.627Z,63.73
2023-01-06T21:09:36.469Z,63.00
2023-01-06T21:12:03.365Z,64.46
2023-01-06T21:14:31.043Z,65.12
2023-01-06T21:16:58.013Z,65.75
2023-01-06T21:19:24.905Z,64.68
2023-01-06T21:21:51.785Z,63.85
2023-01-06T21:24:18.627Z,63.96
2023-01-06T21:26:45.525Z,66.00
2023-01-06T21:29:12.517Z,65.63
2023-01-06T21:31:40.575Z,67.16
2023-01-06T21:34:07.644Z,68.15
2023-01-06T21:36:34.541Z,66.82
2023-01-06T21:39:01.461Z,66.79
2023-01-06T21:41:46.852Z,66.97
2023-01-06T21:44:13.688Z,66.26
2023-01-06T21:46:40.667Z,66.18
2023-01-06T21:49:07.669Z,65.12
2023-01-06T21:51:35.357Z,65.03
2023-01-06T21:54:03.117Z,64.35
2023-01-06T21:56:30.034Z,63.30
2023-01-06T21:58:57.204Z,62.78
2023-01-06T22:01:24.471Z,61.93
2023-01-06T22:03:51.428Z,60.99
2023-01-06T22:06:19.634Z,62.31
2023-01-06T22:08:50.446Z,59.83
2023-01-06T22:11:17.811Z,61.26
2023-01-06T22:13:44.853Z,57.71
2023-01-06T22:16:11.825Z,57.82
2023-01-06T22:18:38.697Z,57.36
2023-01-06T22:21:05.818Z,58.88
2023-01-06T22:23:33.395Z,59.12
2023-01-06T22:26:00.222Z,59.34
2023-01-06T22:28:28.084Z,58.40
2023-01-06T22:30:55.678Z,69.06
2023-01-06T22:33:22.556Z,61.46
2023-01-06T22:35:49.524Z,61.47
2023-01-06T22:38:16.436Z,58.09
2023-01-06T22:40:43.283Z,56.96
2023-01-06T22:43:10.163Z,54.36
2023-01-06T22:45:37.121Z,54.17
2023-01-06T22:48:04.052Z,53.88
2023-01-06T22:50:31.084Z,55.61
2023-01-06T22:52:57.975Z,57.53
2023-01-06T22:55:24.886Z,63.04
2023-01-06T22:57:51.807Z,62.40
2023-01-06T23:00:19.249Z,61.33
2023-01-06T23:02:46.393Z,61.71
2023-01-06T23:05:13.469Z,63.52
2023-01-06T23:07:41.794Z,65.41
2023-01-06T23:10:10.483Z,67.88
2023-01-06T23:12:39.280Z,67.87
2023-01-06T23:15:07.056Z,67.83
2023-01-06T23:17:34.027Z,63.81
2023-01-06T23:20:00.888Z,64.44
2023-01-06T23:22:27.797Z,63.79
2023-01-06T23:24:54.713Z,67.34
2023-01-06T23:27:21.570Z,67.52
2023-01-06T23:29:48.415Z,66.17
2023-01-06T23:32:15.300Z,64.07
2023-01-06T23:34:42.125Z,64.04
2023-01-06T23:37:08.773Z,60.27
2023-01-06T23:39:35.627Z,59.94
2023-01-06T23:42:04.440Z,61.95
2023-01-06T23:44:31.346Z,60.36
2023-01-06T23:46:58.223Z,60.35
2023-01-06T23:49:25.102Z,60.73
2023-01-06T23:51:51.989Z,61.55
2023-01-06T23:54:18.865Z,62.23
2023-01-06T23:56:45.741Z,62.79
2023-01-06T23:59:13.004Z,63.11
